createdAt,value
2024-04-16T00:00:22.350Z,0.00
2024-04-16T00:02:52.395Z,0.00
2024-04-16T00:05:21.277Z,0.00
2024-04-16T00:07:51.349Z,0.00
2024-04-16T00:10:19.410Z,0.00
2024-04-16T00:12:52.211Z,0.00
2024-04-16T00:15:38.352Z,0.00
2024-04-16T00:18:09.244Z,0.10
2024-04-16T00:20:37.372Z,0.00
2024-04-16T00:23:08.218Z,0.00
2024-04-16T00:25:36.429Z,0.00
2024-04-16T00:28:06.331Z,0.00
2024-04-16T00:30:37.364Z,0.00
2024-04-16T00:33:08.285Z,0.00
2024-04-16T00:35:36.934Z,0.00
2024-04-16T00:38:07.122Z,0.00
2024-04-16T00:40:35.367Z,0.00
2024-04-16T00:43:19.021Z,0.00
2024-04-16T00:45:51.469Z,0.00
2024-04-16T00:48:25.472Z,0.10
2024-04-16T00:50:55.508Z,0.00
2024-04-16T00:53:29.524Z,0.00
2024-04-16T00:55:58.459Z,0.00
2024-04-16T00:58:30.345Z,0.00
2024-04-16T01:01:02.393Z,0.00
2024-04-16T01:03:32.443Z,0.00
2024-04-16T01:06:02.299Z,0.00
2024-04-16T01:08:32.480Z,0.00
2024-04-16T01:11:01.311Z,0.00
2024-04-16T01:13:31.775Z,0.00
2024-04-16T01:16:03.439Z,0.10
2024-04-16T01:18:33.938Z,0.00
2024-04-16T01:21:02.291Z,0.00
2024-04-16T01:23:35.101Z,0.00
2024-04-16T01:26:04.328Z,0.00
2024-04-16T01:28:34.870Z,0.00
2024-04-16T01:31:03.310Z,0.90
2024-04-16T01:33:33.557Z,0.00
2024-04-16T01:36:01.319Z,0.00
2024-04-16T01:38:31.113Z,0.00
2024-04-16T01:41:03.328Z,0.10
2024-04-16T01:43:33.107Z,0.90
2024-04-16T01:46:02.382Z,0.03
2024-04-16T01:48:32.348Z,0.00
2024-04-16T01:51:01.330Z,0.00
2024-04-16T01:53:31.113Z,0.00
2024-04-16T01:56:03.334Z,0.90
2024-04-16T01:58:33.155Z,0.00
2024-04-16T02:01:02.362Z,0.00
2024-04-16T02:03:32.361Z,0.00
2024-04-16T02:06:06.837Z,0.00
2024-04-16T02:08:37.341Z,0.32
2024-04-16T02:11:08.486Z,0.00
2024-04-16T02:13:39.405Z,0.00
2024-04-16T02:16:10.262Z,0.00
2024-04-16T02:18:40.448Z,0.00
2024-04-16T02:21:08.817Z,1.90
2024-04-16T02:23:39.379Z,0.00
2024-04-16T02:26:10.497Z,0.00
2024-04-16T02:28:40.389Z,0.00
2024-04-16T02:31:09.025Z,0.30
2024-04-16T02:33:40.379Z,0.20
2024-04-16T02:36:08.973Z,0.00
2024-04-16T02:38:39.383Z,0.00
2024-04-16T02:41:10.568Z,0.00
2024-04-16T02:43:40.469Z,0.00
2024-04-16T02:46:08.891Z,0.00
2024-04-16T02:48:39.407Z,0.00
2024-04-16T02:51:13.174Z,0.00
2024-04-16T02:53:43.410Z,2.50
2024-04-16T02:56:14.693Z,0.55
2024-04-16T02:58:48.411Z,0.00
2024-04-16T03:01:16.949Z,0.00
2024-04-16T03:03:48.439Z,0.00
2024-04-16T03:06:16.903Z,0.00
2024-04-16T03:08:47.406Z,0.00
2024-04-16T03:11:18.708Z,0.00
2024-04-16T03:13:49.226Z,0.10
2024-04-16T03:16:18.473Z,0.00
2024-04-16T03:18:49.266Z,0.00
2024-04-16T03:21:18.435Z,0.30
2024-04-16T03:23:48.222Z,0.00
2024-04-16T03:26:20.434Z,0.00
2024-04-16T03:28:50.217Z,0.00
2024-04-16T03:31:19.477Z,0.00
2024-04-16T03:33:49.236Z,0.00
2024-04-16T03:36:18.514Z,0.00
2024-04-16T03:38:48.207Z,0.00
2024-04-16T03:41:23.443Z,0.00
2024-04-16T03:43:54.378Z,0.00
2024-04-16T03:46:27.497Z,0.00
2024-04-16T03:48:54.593Z,0.00
2024-04-16T03:51:26.467Z,0.00
2024-04-16T03:53:53.613Z,0.00
2024-04-16T03:56:27.505Z,0.00
2024-04-16T03:59:06.265Z,0.00
2024-04-16T04:01:38.555Z,0.00
2024-04-16T04:04:05.712Z,0.00
2024-04-16T04:06:37.482Z,0.00
2024-04-16T04:09:05.622Z,1.50
2024-04-16T04:11:39.491Z,0.00
2024-04-16T04:14:06.633Z,0.00
2024-04-16T04:16:38.599Z,0.00
2024-04-16T04:19:08.564Z,0.00
2024-04-16T04:21:37.524Z,0.00
2024-04-16T04:24:15.746Z,0.00
2024-04-16T04:26:53.629Z,0.00
2024-04-16T04:29:24.522Z,0.00
2024-04-16T04:31:52.671Z,0.00
2024-04-16T04:34:23.604Z,0.20
2024-04-16T04:36:51.635Z,0.00
2024-04-16T04:39:22.515Z,0.03
2024-04-16T04:41:53.712Z,0.00
2024-04-16T04:44:24.518Z,0.00
2024-04-16T04:46:52.664Z,0.00
2024-04-16T04:49:23.778Z,0.00
2024-04-16T04:51:51.686Z,0.00
2024-04-16T04:54:22.563Z,0.10
2024-04-16T04:56:53.666Z,0.00
2024-04-16T04:59:24.517Z,0.00
2024-04-16T05:01:52.783Z,0.00
2024-04-16T05:04:23.595Z,0.00
2024-04-16T05:06:51.670Z,0.00
2024-04-16T05:09:22.556Z,0.00
2024-04-16T05:11:53.704Z,0.00
2024-04-16T05:14:25.560Z,0.00
2024-04-16T05:16:53.695Z,0.10
2024-04-16T05:19:23.619Z,0.00
2024-04-16T05:21:52.069Z,0.10
2024-04-16T05:24:22.561Z,0.00
2024-04-16T05:26:53.708Z,0.30
2024-04-16T05:29:23.557Z,0.00
2024-04-16T05:31:52.063Z,0.00
2024-04-16T05:34:22.428Z,0.00
2024-04-16T05:36:51.571Z,0.00
2024-04-16T05:39:21.364Z,0.00
2024-04-16T05:41:49.592Z,0.00
2024-04-16T05:44:22.347Z,0.00
2024-04-16T05:46:51.646Z,0.03
2024-04-16T05:49:21.946Z,0.20
2024-04-16T05:51:50.607Z,0.00
2024-04-16T05:54:20.686Z,0.00
2024-04-16T05:56:49.605Z,0.00
2024-04-16T05:59:23.104Z,0.00
2024-04-16T06:01:51.658Z,0.00
2024-04-16T06:04:21.743Z,0.00
2024-04-16T06:06:49.747Z,0.00
2024-04-16T06:09:19.653Z,0.10
2024-04-16T06:11:48.264Z,0.00
2024-04-16T06:14:18.630Z,0.00
2024-04-16T06:16:49.831Z,0.00
2024-04-16T06:19:19.469Z,0.10
2024-04-16T06:21:48.637Z,0.10
2024-04-16T06:24:18.383Z,0.00
2024-04-16T06:26:47.629Z,0.00
2024-04-16T06:29:17.649Z,0.40
2024-04-16T06:31:46.803Z,0.00
2024-04-16T06:34:19.646Z,0.00
2024-04-16T06:36:48.635Z,0.10
2024-04-16T06:39:18.418Z,0.00
2024-04-16T06:41:47.679Z,0.00
2024-04-16T06:44:17.450Z,0.00
2024-04-16T06:46:46.741Z,0.00
2024-04-16T06:49:20.442Z,0.00
2024-04-16T06:51:49.714Z,0.00
2024-04-16T06:54:19.457Z,0.00
2024-04-16T06:56:48.153Z,0.00
2024-04-16T06:59:18.716Z,0.00
2024-04-16T07:01:47.177Z,0.20
2024-04-16T07:04:19.757Z,0.00
2024-04-16T07:06:48.705Z,0.00
2024-04-16T07:09:18.663Z,0.00
2024-04-16T07:11:47.211Z,0.00
2024-04-16T07:14:17.689Z,0.00
2024-04-16T07:16:46.429Z,0.20
2024-04-16T07:19:16.765Z,0.10
2024-04-16T07:21:47.818Z,0.00
2024-04-16T07:24:17.760Z,0.00
2024-04-16T07:26:46.837Z,0.00
2024-04-16T07:29:16.713Z,0.00
2024-04-16T07:31:48.393Z,0.00
2024-04-16T07:34:20.760Z,0.00
2024-04-16T07:36:51.869Z,0.00
2024-04-16T07:39:22.707Z,0.00
2024-04-16T07:41:50.845Z,0.00
2024-04-16T07:44:21.289Z,0.40
2024-04-16T07:46:48.763Z,0.00
2024-04-16T07:49:18.557Z,0.00
2024-04-16T07:51:47.731Z,0.00
2024-04-16T07:54:20.545Z,0.00
2024-04-16T07:56:50.793Z,0.00
2024-04-16T07:59:21.704Z,0.00
2024-04-16T08:01:50.751Z,0.00
2024-04-16T08:04:20.664Z,0.00
2024-04-16T08:06:49.754Z,0.00
2024-04-16T08:09:22.543Z,0.00
2024-04-16T08:11:51.750Z,0.00
2024-04-16T08:14:23.249Z,0.90
2024-04-16T08:16:51.818Z,0.00
2024-04-16T08:19:22.445Z,0.00
2024-04-16T08:21:56.380Z,0.00
2024-04-16T08:24:31.518Z,0.00
2024-04-16T08:27:00.777Z,0.00
2024-04-16T08:29:31.177Z,0.00
2024-04-16T08:31:59.789Z,0.00
2024-04-16T08:34:30.556Z,0.00
2024-04-16T08:36:58.963Z,0.00
2024-04-16T08:39:31.802Z,0.00
2024-04-16T08:42:00.971Z,0.00
2024-04-16T08:44:32.845Z,0.00
2024-04-16T08:47:02.073Z,0.00
2024-04-16T08:49:33.875Z,0.00
2024-04-16T08:52:02.980Z,0.00
2024-04-16T08:54:36.842Z,0.70
2024-04-16T08:57:06.947Z,0.00
2024-04-16T08:59:37.804Z,0.00
2024-04-16T09:02:04.993Z,0.00
2024-04-16T09:04:40.954Z,0.00
2024-04-16T09:07:11.030Z,0.00
2024-04-16T09:09:43.823Z,0.00
2024-04-16T09:12:11.971Z,0.00
2024-04-16T09:14:42.850Z,0.10
2024-04-16T09:17:15.224Z,0.00
2024-04-16T09:19:46.875Z,0.00
2024-04-16T09:22:14.074Z,0.00
2024-04-16T09:24:46.854Z,0.00
2024-04-16T09:27:14.981Z,0.00
2024-04-16T09:29:47.100Z,0.20
2024-04-16T09:32:18.470Z,0.00
2024-04-16T09:34:48.979Z,0.00
2024-04-16T09:37:20.279Z,0.10
2024-04-16T09:39:56.884Z,0.00
2024-04-16T09:42:26.882Z,0.10
2024-04-16T09:44:57.864Z,0.00
2024-04-16T09:47:27.180Z,0.00
2024-04-16T09:50:11.279Z,0.00
2024-04-16T09:52:49.542Z,0.00
2024-04-16T09:55:23.904Z,0.10
2024-04-16T09:57:53.866Z,0.00
2024-04-16T10:00:24.895Z,0.00
2024-04-16T10:02:56.122Z,0.00
2024-04-16T10:05:26.877Z,0.00
2024-04-16T10:07:57.099Z,0.00
2024-04-16T10:10:30.930Z,0.00
2024-04-16T10:12:59.091Z,0.00
2024-04-16T10:15:29.520Z,0.00
2024-04-16T10:17:58.947Z,0.00
2024-04-16T10:20:30.907Z,0.00
2024-04-16T10:22:59.980Z,0.00
2024-04-16T10:25:38.278Z,0.03
2024-04-16T10:28:08.953Z,0.10
2024-04-16T10:30:40.680Z,0.00
2024-04-16T10:33:13.013Z,0.00
2024-04-16T10:35:42.797Z,0.00
2024-04-16T10:38:12.957Z,0.00
2024-04-16T10:40:45.766Z,0.00
2024-04-16T10:43:15.406Z,0.00
2024-04-16T10:45:47.813Z,0.00
2024-04-16T10:48:18.944Z,0.00
2024-04-16T10:50:49.538Z,0.00
2024-04-16T10:53:19.971Z,0.00
2024-04-16T10:55:54.152Z,0.00
2024-04-16T10:58:22.984Z,0.00
2024-04-16T11:00:56.486Z,0.00
2024-04-16T11:03:25.104Z,0.00
2024-04-16T11:05:55.131Z,0.00
2024-04-16T11:08:23.969Z,0.00
2024-04-16T11:10:57.111Z,0.10
2024-04-16T11:13:26.079Z,0.00
2024-04-16T11:15:56.113Z,0.00
2024-04-16T11:18:25.086Z,0.00
2024-04-16T11:20:55.920Z,0.00
2024-04-16T11:23:24.963Z,0.00
2024-04-16T11:25:57.815Z,0.00
2024-04-16T11:28:27.015Z,0.00
2024-04-16T11:30:58.352Z,0.90
2024-04-16T11:33:36.347Z,0.00
2024-04-16T11:36:09.570Z,0.00
2024-04-16T11:38:44.083Z,0.00
2024-04-16T11:41:16.055Z,0.10
2024-04-16T11:43:49.103Z,0.00
2024-04-16T11:46:18.228Z,0.00
2024-04-16T11:48:50.256Z,0.00
2024-04-16T11:51:18.188Z,0.60
2024-04-16T11:53:50.064Z,0.00
2024-04-16T11:56:20.299Z,0.00
2024-04-16T11:58:51.092Z,0.00
2024-04-16T12:01:18.635Z,0.00
2024-04-16T12:03:50.074Z,0.00
2024-04-16T12:06:17.555Z,0.00
2024-04-16T12:08:47.778Z,0.00
2024-04-16T12:11:16.061Z,0.00
2024-04-16T12:13:49.839Z,0.00
2024-04-16T12:16:18.080Z,0.17
2024-04-16T12:18:47.818Z,0.00
2024-04-16T12:21:17.061Z,0.00
2024-04-16T12:23:48.855Z,0.00
2024-04-16T12:26:21.072Z,0.00
2024-04-16T12:28:51.472Z,0.00
2024-04-16T12:31:23.107Z,0.00
2024-04-16T12:33:50.268Z,0.00
2024-04-16T12:36:21.106Z,0.00
2024-04-16T12:38:49.207Z,0.00
2024-04-16T12:41:20.079Z,0.00
2024-04-16T12:43:51.336Z,0.00
2024-04-16T12:46:21.220Z,0.00
2024-04-16T12:48:51.546Z,0.00
2024-04-16T12:51:22.103Z,0.00
2024-04-16T12:53:50.702Z,0.00
2024-04-16T12:56:20.376Z,0.10
2024-04-16T12:58:51.119Z,0.75
2024-04-16T13:01:26.363Z,0.00
2024-04-16T13:03:54.225Z,0.00
2024-04-16T13:06:23.866Z,0.00
2024-04-16T13:08:54.228Z,0.00
2024-04-16T13:11:23.979Z,0.00
2024-04-16T13:13:55.609Z,0.00
2024-04-16T13:16:26.218Z,0.00
2024-04-16T13:18:54.711Z,0.00
2024-04-16T13:21:24.926Z,0.00
2024-04-16T13:23:53.151Z,0.00
2024-04-16T13:26:23.236Z,0.00
2024-04-16T13:28:52.183Z,0.00
2024-04-16T13:31:24.965Z,0.00
2024-04-16T13:33:54.129Z,0.00
2024-04-16T13:36:24.276Z,0.00
2024-04-16T13:38:53.152Z,0.00
2024-04-16T13:41:23.774Z,0.00
2024-04-16T13:43:53.171Z,0.08
2024-04-16T13:46:25.986Z,0.00
2024-04-16T13:48:55.175Z,2.40
2024-04-16T13:51:25.288Z,2.30
2024-04-16T13:53:54.175Z,2.50
2024-04-16T13:56:24.565Z,2.50
2024-04-16T13:58:53.157Z,2.20
2024-04-16T14:01:26.224Z,2.40
2024-04-16T14:03:55.202Z,2.53
2024-04-16T14:06:25.428Z,2.60
2024-04-16T14:08:52.729Z,2.47
2024-04-16T14:11:23.280Z,2.42
2024-04-16T14:13:52.016Z,2.72
2024-04-16T14:16:22.284Z,2.25
2024-04-16T14:18:54.193Z,2.50
2024-04-16T14:21:24.004Z,2.28
2024-04-16T14:23:54.194Z,1.88
2024-04-16T14:26:25.800Z,2.38
2024-04-16T14:28:54.223Z,2.40
2024-04-16T14:31:24.415Z,2.30
2024-04-16T14:33:56.225Z,2.20
2024-04-16T14:36:26.350Z,2.13
2024-04-16T14:38:54.647Z,2.40
2024-04-16T14:41:25.221Z,2.40
2024-04-16T14:43:53.830Z,2.28
2024-04-16T14:46:24.276Z,2.60
2024-04-16T14:48:55.391Z,2.20
2024-04-16T14:51:25.254Z,2.28
2024-04-16T14:53:53.795Z,1.97
2024-04-16T14:56:24.235Z,2.22
2024-04-16T14:58:52.766Z,2.42
2024-04-16T15:01:23.401Z,2.10
2024-04-16T15:03:53.481Z,2.00
2024-04-16T15:06:26.340Z,1.55
2024-04-16T15:08:56.412Z,1.40
2024-04-16T15:11:27.314Z,1.52
2024-04-16T15:13:55.936Z,1.40
2024-04-16T15:16:27.332Z,1.40
2024-04-16T15:18:55.414Z,1.80
2024-04-16T15:21:28.338Z,1.50
2024-04-16T15:23:56.399Z,1.30
2024-04-16T15:26:26.406Z,1.30
2024-04-16T15:28:54.347Z,1.20
2024-04-16T15:31:25.100Z,1.27
2024-04-16T15:33:53.299Z,1.25
2024-04-16T15:36:23.468Z,1.00
2024-04-16T15:38:53.680Z,1.00
2024-04-16T15:41:26.406Z,1.40
2024-04-16T15:43:54.474Z,1.30
2024-04-16T15:46:24.462Z,1.20
2024-04-16T15:48:53.298Z,1.30
2024-04-16T15:51:25.978Z,1.20
2024-04-16T15:53:57.317Z,1.20
2024-04-16T15:56:27.439Z,1.50
2024-04-16T15:58:56.353Z,1.60
2024-04-16T16:01:28.760Z,1.50
2024-04-16T16:03:57.346Z,1.50
2024-04-16T16:06:27.686Z,1.40
2024-04-16T16:08:59.314Z,1.43
2024-04-16T16:11:29.484Z,1.40
2024-04-16T16:13:58.360Z,1.58
2024-04-16T16:16:28.490Z,1.30
2024-04-16T16:18:56.375Z,1.50
2024-04-16T16:21:26.124Z,1.30
2024-04-16T16:24:00.764Z,1.35
2024-04-16T16:26:32.266Z,1.15
2024-04-16T16:29:01.352Z,1.40
2024-04-16T16:31:36.215Z,1.00
2024-04-16T16:34:10.435Z,1.00
2024-04-16T16:36:41.728Z,1.20
2024-04-16T16:39:13.366Z,1.10
2024-04-16T16:41:43.743Z,1.30
2024-04-16T16:44:12.386Z,1.23
2024-04-16T16:46:42.624Z,1.10
2024-04-16T16:49:11.364Z,1.40
2024-04-16T16:51:41.566Z,1.30
2024-04-16T16:54:13.384Z,1.25
2024-04-16T16:56:43.532Z,1.00
2024-04-16T16:59:12.399Z,1.20
2024-04-16T17:01:42.564Z,1.30
2024-04-16T17:04:11.432Z,1.20
2024-04-16T17:06:42.889Z,1.40
2024-04-16T17:09:14.412Z,1.35
2024-04-16T17:11:44.565Z,1.48
2024-04-16T17:14:12.538Z,1.00
2024-04-16T17:16:43.494Z,1.20
2024-04-16T17:19:11.550Z,1.00
2024-04-16T17:21:42.400Z,1.10
2024-04-16T17:24:14.694Z,1.00
2024-04-16T17:26:46.433Z,1.02
2024-04-16T17:29:14.582Z,0.93
2024-04-16T17:31:45.524Z,1.10
2024-04-16T17:34:13.698Z,1.40
2024-04-16T17:36:44.456Z,1.23
2024-04-16T17:39:17.706Z,1.23
2024-04-16T17:41:48.466Z,1.25
2024-04-16T17:44:16.934Z,1.30
2024-04-16T17:46:48.540Z,1.20
2024-04-16T17:49:17.029Z,1.50
2024-04-16T17:51:48.484Z,1.65
2024-04-16T17:54:19.575Z,1.60
2024-04-16T17:56:50.468Z,1.77
2024-04-16T17:59:20.555Z,1.75
2024-04-16T18:01:50.569Z,2.17
2024-04-16T18:04:19.124Z,1.77
2024-04-16T18:06:49.483Z,1.95
2024-04-16T18:09:20.688Z,2.50
2024-04-16T18:11:50.540Z,2.05
2024-04-16T18:14:19.150Z,2.00
2024-04-16T18:16:49.471Z,2.03
2024-04-16T18:19:18.499Z,2.20
2024-04-16T18:21:48.278Z,2.30
2024-04-16T18:24:17.488Z,2.58
2024-04-16T18:26:52.649Z,2.20
2024-04-16T18:29:21.505Z,2.15
2024-04-16T18:31:51.326Z,1.92
2024-04-16T18:34:20.548Z,2.45
2024-04-16T18:36:50.277Z,2.33
2024-04-16T18:39:19.538Z,2.22
2024-04-16T18:41:53.812Z,2.53
2024-04-16T18:44:22.639Z,2.20
2024-04-16T18:46:53.592Z,2.15
2024-04-16T18:49:24.695Z,2.50
2024-04-16T18:51:55.528Z,2.08
2024-04-16T18:54:28.418Z,1.90
2024-04-16T18:57:04.880Z,2.10
2024-04-16T18:59:33.608Z,2.38
2024-04-16T19:02:04.459Z,2.60
2024-04-16T19:04:35.722Z,2.55
2024-04-16T19:07:06.504Z,2.70
2024-04-16T19:09:35.672Z,2.93
2024-04-16T19:12:09.528Z,2.97
2024-04-16T19:14:42.596Z,2.85
2024-04-16T19:17:14.058Z,3.17
2024-04-16T19:19:43.756Z,3.60
2024-04-16T19:22:16.001Z,3.72
2024-04-16T19:24:44.207Z,3.70
2024-04-16T19:27:17.704Z,3.80
2024-04-16T19:29:46.241Z,3.38
2024-04-16T19:32:17.747Z,3.40
2024-04-16T19:34:46.920Z,2.88
2024-04-16T19:37:18.740Z,3.00
2024-04-16T19:39:47.538Z,3.88
2024-04-16T19:42:20.704Z,3.87
2024-04-16T19:44:49.360Z,3.90
2024-04-16T19:47:19.707Z,4.28
2024-04-16T19:49:48.714Z,4.50
2024-04-16T19:52:23.092Z,4.80
2024-04-16T19:54:51.847Z,4.93
2024-04-16T19:57:24.626Z,4.75
2024-04-16T19:59:53.728Z,5.27
2024-04-16T20:02:25.653Z,4.53
2024-04-16T20:04:54.596Z,4.68
2024-04-16T20:07:24.705Z,5.28
2024-04-16T20:09:54.398Z,5.90
2024-04-16T20:12:28.688Z,5.97
2024-04-16T20:14:57.555Z,5.40
2024-04-16T20:17:27.693Z,5.68
2024-04-16T20:19:57.221Z,4.70
2024-04-16T20:22:30.862Z,4.07
2024-04-16T20:24:59.860Z,4.10
2024-04-16T20:27:33.698Z,3.85
2024-04-16T20:30:01.938Z,4.40
2024-04-16T20:32:31.971Z,4.57
2024-04-16T20:35:02.789Z,4.80
2024-04-16T20:37:35.411Z,4.80
2024-04-16T20:40:05.198Z,4.75
2024-04-16T20:42:38.743Z,4.72
2024-04-16T20:45:08.042Z,4.93
2024-04-16T20:47:38.833Z,4.38
2024-04-16T20:50:08.059Z,4.53
2024-04-16T20:52:38.576Z,4.65
2024-04-16T20:55:07.760Z,4.80
2024-04-16T20:57:40.543Z,4.43
2024-04-16T21:00:10.774Z,4.13
2024-04-16T21:02:41.638Z,3.78
2024-04-16T21:05:10.819Z,3.83
2024-04-16T21:07:41.556Z,4.38
2024-04-16T21:10:09.759Z,4.00
2024-04-16T21:12:42.774Z,3.60
2024-04-16T21:15:11.817Z,3.88
2024-04-16T21:17:42.793Z,3.17
2024-04-16T21:20:11.743Z,3.30
2024-04-16T21:22:42.112Z,2.90
2024-04-16T21:25:10.727Z,3.72
2024-04-16T21:27:44.644Z,3.63
2024-04-16T21:30:13.771Z,3.63
2024-04-16T21:32:44.058Z,3.80
2024-04-16T21:35:11.918Z,4.07
2024-04-16T21:37:41.802Z,3.45
2024-04-16T21:40:10.436Z,3.78
2024-04-16T21:42:41.773Z,3.40
2024-04-16T21:45:15.758Z,3.75
2024-04-16T21:47:45.636Z,3.60
2024-04-16T21:50:15.837Z,3.65
2024-04-16T21:52:45.647Z,4.07
2024-04-16T21:55:14.874Z,4.13
2024-04-16T21:57:44.581Z,3.42
2024-04-16T22:00:16.802Z,3.78
2024-04-16T22:02:46.660Z,3.92
2024-04-16T22:05:15.778Z,3.58
2024-04-16T22:07:49.098Z,4.00
2024-04-16T22:10:18.152Z,4.10
2024-04-16T22:12:48.818Z,3.80
2024-04-16T22:15:20.073Z,4.15
2024-04-16T22:17:50.894Z,3.58
2024-04-16T22:20:21.170Z,3.97
2024-04-16T22:22:51.843Z,4.13
2024-04-16T22:25:23.812Z,4.15
2024-04-16T22:27:53.922Z,3.88
2024-04-16T22:30:25.008Z,4.20
2024-04-16T22:32:55.937Z,4.72
2024-04-16T22:35:24.345Z,4.33
2024-04-16T22:37:55.912Z,4.03
2024-04-16T22:40:24.424Z,4.35
2024-04-16T22:42:54.858Z,4.70
2024-04-16T22:45:29.889Z,4.30
2024-04-16T22:47:58.973Z,4.32
2024-04-16T22:50:32.291Z,4.23
2024-04-16T22:53:01.854Z,4.75
2024-04-16T22:55:33.080Z,4.32
2024-04-16T22:58:02.134Z,4.70
2024-04-16T23:00:36.179Z,4.30
2024-04-16T23:03:04.954Z,4.43
2024-04-16T23:05:36.397Z,4.27
2024-04-16T23:08:04.889Z,4.60
2024-04-16T23:10:39.031Z,4.20
2024-04-16T23:13:07.959Z,4.15
2024-04-16T23:15:41.779Z,4.10
2024-04-16T23:18:10.945Z,4.57
2024-04-16T23:20:42.257Z,5.03
2024-04-16T23:23:10.897Z,4.43
2024-04-16T23:25:45.122Z,3.88
2024-04-16T23:28:13.893Z,4.25
2024-04-16T23:30:46.989Z,4.15
2024-04-16T23:33:16.103Z,4.75
2024-04-16T23:35:47.277Z,4.20
2024-04-16T23:38:15.047Z,3.73
2024-04-16T23:40:49.297Z,4.32
2024-04-16T23:43:17.113Z,4.18
2024-04-16T23:45:49.884Z,4.23
2024-04-16T23:48:18.568Z,3.70
2024-04-16T23:50:48.443Z,4.13
2024-04-16T23:53:23.936Z,4.15
2024-04-16T23:55:53.679Z,4.57
2024-04-16T23:58:22.124Z,4.47
